Bente — PBTG — position and weather

sailwx.info

Track history (hours):
 
Tides and Currents Weather Stations Pressure Air Temp Water Temp Dewpoint Dewpoint Depression Visibility Wind Speed Wind Dir Waves Ship Positions

Bente

Last reported at 2018-Jun-21 01:12 UTC. Time now 2018-Jun-21 08:46 UTC.
Position N 44°50' W 007°09'.

Length 90 m; draft 5.9 m.

Type: Ship. MMSI: 245870000.

Date/timePositionNaut miles runAvg speedWind from/ knotsBaromVisibWave heightAir tempDewpointWater temp
2018-Jun-21 01:12N 44°50' W 007°09'5 9.9
2018-Jun-21 00:44N 44°53' W 007°04'125 9.3
2018-Jun-20 11:17N 46°04' W 004°37'5 9.6
2018-Jun-20 10:47N 46°06' W 004°31'5 9.4
2018-Jun-20 10:12N 46°09' W 004°24'3 9.5
2018-Jun-20 09:53N 46°11' W 004°21'6 9.7
2018-Jun-20 09:18N 46°14' W 004°14'3 9.9
2018-Jun-20 09:00N 46°16' W 004°10'510.0
2018-Jun-20 08:30N 46°19' W 004°04'6 9.4
2018-Jun-20 07:54N 46°22' W 003°58'4 9.3
2018-Jun-20 07:30N 46°24' W 003°53'5 9.5
2018-Jun-20 07:00N 46°27' W 003°48'5 9.5
2018-Jun-20 06:30N 46°30' W 003°42'5 9.2
2018-Jun-20 06:00N 46°32' W 003°36'5 9.3
2018-Jun-20 05:30N 46°35' W 003°31'5 9.3
2018-Jun-20 05:00N 46°37' W 003°25'4 8.9
2018-Jun-20 04:30N 46°40' W 003°20'5 9.4
2018-Jun-20 03:58N 46°43' W 003°14'4 9.7
2018-Jun-20 03:30N 46°45' W 003°08'5 9.6
2018-Jun-20 02:59N 46°48' W 003°02'5 9.6
2018-Jun-20 02:30N 46°51' W 002°57'5 9.9
2018-Jun-20 02:00N 46°54' W 002°51'5 9.7
2018-Jun-20 01:30N 46°57' W 002°45'5 9.9
2018-Jun-20 01:01N 47°00' W 002°40'510.4
2018-Jun-20 00:30N 47°02' W 002°33'510.8
2018-Jun-20 00:00N 47°05' W 002°27'5 9.8
2018-Jun-19 23:30N 47°08' W 002°21'510.2
2018-Jun-19 23:00N 47°12' W 002°17'510.0
2018-Jun-19 22:30N 47°16' W 002°12'5 9.5
2018-Jun-19 22:00N 47°18' W 002°06'5 9.9
2018-Jun-19 21:30N 47°17' W 001°59'510.2
2018-Jun-19 21:00N 47°16' W 001°51'5 9.1
2018-Jun-19 20:30N 47°13' W 001°47'4 8.6
2018-Jun-19 20:00N 47°12' W 001°40'3 5.1
2018-Jun-19 19:30N 47°12' W 001°37'0 0.0
2018-Jun-19 19:00N 47°12' W 001°37'0 0.0
2018-Jun-19 18:30N 47°12' W 001°37'0 0.0
2018-Jun-19 18:00N 47°12' W 001°37'0 0.0
2018-Jun-19 17:30N 47°12' W 001°37'0 0.0
2018-Jun-19 17:00N 47°12' W 001°37'0 0.0
2018-Jun-19 16:30N 47°12' W 001°37'0 0.0
2018-Jun-19 16:00N 47°12' W 001°37'0 0.0
2018-Jun-19 15:30N 47°12' W 001°37'0 0.0
2018-Jun-19 14:59N 47°12' W 001°37'0 0.0
2018-Jun-19 14:30N 47°12' W 001°37'0 0.0
2018-Jun-19 14:00N 47°12' W 001°37'0 0.0
2018-Jun-19 13:30N 47°12' W 001°37'0 0.0
2018-Jun-19 13:00N 47°12' W 001°37'0 0.0
2018-Jun-19 12:30N 47°12' W 001°37'0 0.0
2018-Jun-19 11:58N 47°12' W 001°37'0 0.0
2018-Jun-19 11:16N 47°12' W 001°37'0 0.0
2018-Jun-19 10:58N 47°12' W 001°37'0 0.0
2018-Jun-19 10:28N 47°12' W 001°37'0 0.0
2018-Jun-19 10:00N 47°12' W 001°37'0 0.0
2018-Jun-19 09:30N 47°12' W 001°37'0 0.0
2018-Jun-19 09:00N 47°12' W 001°37'0 0.0
2018-Jun-19 08:30N 47°12' W 001°37'0 0.0
2018-Jun-19 08:00N 47°12' W 001°37'0 0.0
2018-Jun-19 07:29N 47°12' W 001°37'0 0.0
2018-Jun-19 06:59N 47°12' W 001°37'0 0.0
2018-Jun-19 06:26N 47°12' W 001°37'0 0.0
2018-Jun-19 05:59N 47°12' W 001°37'0 0.0
2018-Jun-19 05:28N 47°12' W 001°37'0 0.0
2018-Jun-19 04:55N 47°12' W 001°37'0 0.0
2018-Jun-19 04:28N 47°12' W 001°37'0 0.0
2018-Jun-19 03:58N 47°12' W 001°37'0 0.0
2018-Jun-19 03:28N 47°12' W 001°37'0 0.0
2018-Jun-19 03:00N 47°12' W 001°37'0 0.0
2018-Jun-19 02:30N 47°12' W 001°37'0 0.0
2018-Jun-19 01:57N 47°12' W 001°37'0 0.0
2018-Jun-19 01:30N 47°12' W 001°37'0 0.0
2018-Jun-19 01:00N 47°12' W 001°37'0 0.0
2018-Jun-19 00:29N 47°12' W 001°37'0 0.0
2018-Jun-18 23:59N 47°12' W 001°37'0 0.0
2018-Jun-18 23:29N 47°12' W 001°37'0 0.0
2018-Jun-18 22:59N 47°12' W 001°37'0 0.0
2018-Jun-18 22:25N 47°12' W 001°37'0 0.0
2018-Jun-18 21:58N 47°12' W 001°37'0 0.0
2018-Jun-18 21:28N 47°12' W 001°37'0 0.0
2018-Jun-18 20:58N 47°12' W 001°37'0 0.0
2018-Jun-18 20:28N 47°12' W 001°37'0 0.0
2018-Jun-18 20:00N 47°12' W 001°37'0 0.0
2018-Jun-18 19:30N 47°12' W 001°37'0 0.0
2018-Jun-18 19:00N 47°12' W 001°37'0 0.0
2018-Jun-18 18:27N 47°12' W 001°37'0 0.0
2018-Jun-18 18:00N 47°12' W 001°37'1 2.5
2018-Jun-18 17:31N 47°12' W 001°38'611.3
2018-Jun-18 17:00N 47°13' W 001°47'611.9
2018-Jun-18 16:31N 47°16' W 001°53'612.9
2018-Jun-18 16:01N 47°18' W 002°02'612.0
2018-Jun-18 15:30N 47°16' W 002°11'611.9
2018-Jun-18 15:00N 47°12' W 002°17'510.8
2018-Jun-18 14:31N 47°08' W 002°21'2 4.6
2018-Jun-18 14:00N 47°08' W 002°25'2 4.1
2018-Jun-18 13:30N 47°08' W 002°28'0 0.0
2018-Jun-18 12:51N 47°08' W 002°28'0 0.0
2018-Jun-18 12:26N 47°08' W 002°28'0 0.0
2018-Jun-18 11:56N 47°08' W 002°28'0 0.0
2018-Jun-18 11:29N 47°08' W 002°28'0 0.0
2018-Jun-18 10:59N 47°08' W 002°28'0 0.1
2018-Jun-18 10:29N 47°07' W 002°28'0 0.1
2018-Jun-18 09:58N 47°07' W 002°28'0 0.0
2018-Jun-18 09:28N 47°07' W 002°28'0 0.1
2018-Jun-18 08:58N 47°07' W 002°28'0 0.0
2018-Jun-18 08:28N 47°07' W 002°28'0 0.0
2018-Jun-18 07:57N 47°07' W 002°27'0 0.0
2018-Jun-18 07:30N 47°08' W 002°27'0 0.1
2018-Jun-18 07:00N 47°08' W 002°27'0 0.0
2018-Jun-18 06:30N 47°08' W 002°27'0 0.0
2018-Jun-18 05:57N 47°08' W 002°27'0 0.0
2018-Jun-18 05:29N 47°08' W 002°27'0 0.0
2018-Jun-18 04:59N 47°08' W 002°27'0 0.0
2018-Jun-18 04:29N 47°08' W 002°27'0 0.0
2018-Jun-18 03:56N 47°08' W 002°27'0 0.0
2018-Jun-18 03:29N 47°08' W 002°27'0 0.0
2018-Jun-18 02:58N 47°08' W 002°27'0 0.0
2018-Jun-18 02:28N 47°08' W 002°27'0 0.0
2018-Jun-18 01:58N 47°08' W 002°27'0 0.3
2018-Jun-18 01:25N 47°08' W 002°28'0 0.3
2018-Jun-18 01:01N 47°08' W 002°28'0 0.0
2018-Jun-18 00:30N 47°08' W 002°28'0 0.1
2018-Jun-18 00:00N 47°08' W 002°28'0 0.1
2018-Jun-17 23:30N 47°08' W 002°28'0 0.0
2018-Jun-17 23:00N 47°08' W 002°28'0 0.0
2018-Jun-17 22:29N 47°08' W 002°28'0 0.1
2018-Jun-17 22:00N 47°08' W 002°28'1 1.7
2018-Jun-17 21:31N 47°08' W 002°29'510.5
2018-Jun-17 21:00N 47°10' W 002°36'510.9
2018-Jun-17 20:30N 47°11' W 002°44'611.2
2018-Jun-17 20:00N 47°12' W 002°52'611.2
2018-Jun-17 19:30N 47°13' W 002°60'611.2
2018-Jun-17 19:00N 47°15' W 003°08'611.2
2018-Jun-17 18:31N 47°16' W 003°16'611.6
2018-Jun-17 18:00N 47°19' W 003°23'611.5
2018-Jun-17 17:30N 47°22' W 003°30'611.3
2018-Jun-17 17:01N 47°25' W 003°37'611.4
2018-Jun-17 16:30N 47°28' W 003°45'611.4
2018-Jun-17 16:00N 47°31' W 003°52'5 9.5
2018-Jun-17 15:30N 47°34' W 003°58'5 9.5
2018-Jun-17 14:59N 47°36' W 004°04'23 9.4
2018-Jun-17 12:34N 47°48' W 004°33'1 9.2
2018-Jun-17 12:30N 47°48' W 004°33'6 9.3
2018-Jun-17 11:49N 47°52' W 004°42'3 8.9
2018-Jun-17 11:31N 47°53' W 004°45'5 9.0
2018-Jun-17 11:00N 47°55' W 004°51'510.1
2018-Jun-17 10:30N 47°58' W 004°57'510.3
2018-Jun-17 10:00N 48°01' W 005°04'610.4
2018-Jun-17 09:28N 48°04' W 005°11'2610.8
2018-Jun-17 07:06N 48°24' W 005°35'410.1
2018-Jun-17 06:44N 48°26' W 005°39'210.0
2018-Jun-17 06:31N 48°28' W 005°41'31 9.0
2018-Jun-17 03:06N 48°57' W 005°57'310.2
2018-Jun-17 02:50N 48°60' W 005°57'510.4
2018-Jun-17 02:22N 49°04' W 005°57'610.5
2018-Jun-17 01:50N 49°10' W 005°57'410.8
2018-Jun-17 01:29N 49°14' W 005°57'2411.2
2018-Jun-16 23:20N 49°38' W 005°59'158 9.5
2018-Jun-16 06:36N 52°16' W 005°50'310.0
2018-Jun-16 06:19N 52°19' W 005°49'2011.4
2018-Jun-16 04:32N 52°39' W 005°45'312.6
2018-Jun-16 04:19N 52°42' W 005°44'512.8
2018-Jun-16 03:57N 52°46' W 005°43'612.9
2018-Jun-16 03:31N 52°52' W 005°42'813.5
2018-Jun-16 02:54N 53°00' W 005°40'712.9
2018-Jun-16 02:21N 53°07' W 005°42'512.3
2018-Jun-16 01:56N 53°12' W 005°45'511.5
2018-Jun-16 01:29N 53°17' W 005°49'1410.8
2018-Jun-16 00:09N 53°30' W 005°58'310.5
2018-Jun-15 23:52N 53°33' W 005°60'4 9.8
2018-Jun-15 23:29N 53°36' W 006°03'5 9.8
2018-Jun-15 23:01N 53°40' W 006°08'5 9.4
2018-Jun-15 22:30N 53°43' W 006°13'3 5.8
2018-Jun-15 22:00N 53°43' W 006°18'0 0.2
2018-Jun-15 21:28N 53°43' W 006°18'0 0.0
2018-Jun-15 20:58N 53°43' W 006°18'0 0.0
2018-Jun-15 20:28N 53°43' W 006°18'0 0.0
2018-Jun-15 19:45N 53°43' W 006°18'0 0.0
2018-Jun-15 18:45N 53°43' W 006°18'0 0.0
2018-Jun-15 17:41N 53°43' W 006°18'0 0.0
2018-Jun-15 17:29N 53°43' W 006°18'0 0.0
2018-Jun-15 16:56N 53°43' W 006°18'0 0.0
2018-Jun-15 16:23N 53°43' W 006°18'0 0.0
2018-Jun-15 15:59N 53°43' W 006°18'0 0.0
2018-Jun-15 15:28N 53°43' W 006°18'0 0.0
2018-Jun-15 14:58N 53°43' W 006°18'0 0.0
2018-Jun-15 14:28N 53°43' W 006°18'0 0.0
2018-Jun-15 13:55N 53°43' W 006°18'0 0.0
2018-Jun-15 13:28N 53°43' W 006°18'0 0.0
2018-Jun-15 13:00N 53°43' W 006°18'0 0.0
2018-Jun-15 12:30N 53°43' W 006°18'0 0.0
2018-Jun-15 11:57N 53°43' W 006°18'0 0.0
2018-Jun-15 11:27N 53°43' W 006°18'0 0.0
2018-Jun-15 10:59N 53°43' W 006°18'0 0.0
2018-Jun-15 10:29N 53°43' W 006°18'0 0.0
2018-Jun-15 09:59N 53°43' W 006°18'0 0.0
2018-Jun-15 09:23N 53°43' W 006°18'0 0.0
2018-Jun-15 03:50N 53°43' W 006°18'0 0.0
2018-Jun-15 03:29N 53°43' W 006°18'0 0.0
2018-Jun-15 02:59N 53°43' W 006°18'0 0.0
2018-Jun-15 02:23N 53°43' W 006°18'0 0.0
2018-Jun-15 01:59N 53°43' W 006°18'0 0.0
2018-Jun-15 01:28N 53°43' W 006°18'0 0.0
2018-Jun-15 00:58N 53°43' W 006°18'0 0.0
2018-Jun-15 00:25N 53°43' W 006°18'0 0.0
2018-Jun-14 23:55N 53°43' W 006°18'0 0.0
2018-Jun-14 23:22N 53°43' W 006°18'0 1.3
2018-Jun-14 23:00N 53°43' W 006°17'3 5.1
2018-Jun-14 22:30N 53°43' W 006°13'1 2.9
2018-Jun-14 22:00N 53°43' W 006°11'1 2.5
2018-Jun-14 21:30N 53°42' W 006°10'4 8.8
2018-Jun-14 21:00N 53°38' W 006°05'4010.7
2018-Jun-14 17:14N 53°01' W 005°40'4 9.5
2018-Jun-14 16:47N 52°57' W 005°40'3 9.3
2018-Jun-14 16:30N 52°54' W 005°40'4 8.8
2018-Jun-14 16:00N 52°50' W 005°41'79 8.6
2018-Jun-14 06:51N 51°31' W 005°49'53 9.3
2018-Jun-14 01:05N 50°38' W 005°51'3 9.7
2018-Jun-14 00:50N 50°35' W 005°51'6 9.6
2018-Jun-14 00:14N 50°30' W 005°51'2 9.4
2018-Jun-13 23:59N 50°27' W 005°51'4 9.4
2018-Jun-13 23:30N 50°23' W 005°52'5 9.2
2018-Jun-13 22:57N 50°18' W 005°52'54 6.6
2018-Jun-13 14:46N 49°60' W 004°32'2 9.0
2018-Jun-13 14:30N 50°00' W 004°29'7 9.5
2018-Jun-13 13:46N 50°01' W 004°18'310.0
2018-Jun-13 13:30N 50°02' W 004°14'510.3
2018-Jun-13 13:00N 50°03' W 004°06'710.8
2018-Jun-13 12:21N 50°04' W 003°55'511.2
2018-Jun-13 11:54N 50°05' W 003°48'511.3
2018-Jun-13 11:30N 50°06' W 003°41'611.1
2018-Jun-13 11:00N 50°07' W 003°32'510.6
2018-Jun-13 10:30N 50°08' W 003°24'5 9.8
2018-Jun-13 10:00N 50°09' W 003°17'5 9.4
2018-Jun-13 09:30N 50°10' W 003°09'5 9.1
2018-Jun-13 09:00N 50°11' W 003°02'4 8.9
2018-Jun-13 08:30N 50°11' W 002°56'4 8.5
2018-Jun-13 08:00N 50°12' W 002°49'4 8.0
2018-Jun-13 07:30N 50°13' W 002°43'4 7.5
2018-Jun-13 07:00N 50°14' W 002°37'4 7.4
2018-Jun-13 06:27N 50°14' W 002°31'3 7.5
2018-Jun-13 06:00N 50°15' W 002°26'10 8.0
2018-Jun-13 04:43N 50°17' W 002°10'2 8.8
2018-Jun-13 04:28N 50°17' W 002°06'6 9.5
2018-Jun-13 03:51N 50°19' W 001°57'410.3
2018-Jun-13 03:30N 50°19' W 001°52'511.1
2018-Jun-13 03:00N 50°20' W 001°44'611.8
2018-Jun-13 02:30N 50°21' W 001°35'612.4
2018-Jun-13 02:00N 50°23' W 001°25'1812.8
2018-Jun-13 00:38N 50°26' W 000°58'412.9
2018-Jun-13 00:19N 50°26' W 000°51'412.5
2018-Jun-13 00:00N 50°27' W 000°45'611.4
2018-Jun-12 23:30N 50°28' W 000°37'510.7
2018-Jun-12 23:00N 50°29' W 000°28'510.3
2018-Jun-12 22:30N 50°30' W 000°20'13 9.1
2018-Jun-12 21:08N 50°33' W 000°01'3 8.0
2018-Jun-12 20:46N 50°33' E 000°03'3 7.7
2018-Jun-12 20:26N 50°34' E 000°07'3 7.6
2018-Jun-12 20:00N 50°35' E 000°12'4 7.4
2018-Jun-12 19:30N 50°36' E 000°18'4 7.5
2018-Jun-12 19:00N 50°37' E 000°24'4 8.2
2018-Jun-12 18:30N 50°38' E 000°30'4 9.0
2018-Jun-12 18:00N 50°40' E 000°36'510.1
2018-Jun-12 17:30N 50°43' E 000°43'510.9
2018-Jun-12 17:00N 50°46' E 000°50'611.5
2018-Jun-12 16:30N 50°49' E 000°57'611.7
2018-Jun-12 16:00N 50°53' E 001°05'611.6
2018-Jun-12 15:30N 50°57' E 001°12'611.4
2018-Jun-12 15:00N 51°00' E 001°19'510.8
2018-Jun-12 14:30N 51°04' E 001°25'510.0
2018-Jun-12 14:00N 51°07' E 001°31'4 8.8
2018-Jun-12 13:30N 51°10' E 001°37'4 8.2
2018-Jun-12 13:00N 51°12' E 001°42'4 7.7
2018-Jun-12 12:30N 51°15' E 001°46'4 7.8
2018-Jun-12 12:00N 51°18' E 001°50'4 7.8
2018-Jun-12 11:30N 51°21' E 001°53'4 8.1
2018-Jun-12 11:00N 51°25' E 001°57'4 8.5
2018-Jun-12 10:30N 51°28' E 002°01'5 9.1
2018-Jun-12 10:00N 51°31' E 002°06'5 9.3
2018-Jun-12 09:30N 51°35' E 002°12'510.0
2018-Jun-12 09:00N 51°38' E 002°17'710.9
2018-Jun-12 08:23N 51°43' E 002°25'611.2
2018-Jun-12 07:52N 51°48' E 002°31'411.3
2018-Jun-12 07:28N 51°51' E 002°36'511.2
2018-Jun-12 07:00N 51°54' E 002°43'811.2
2018-Jun-12 06:15N 51°58' E 002°55'311.0
2018-Jun-12 05:56N 51°60' E 002°60'510.8
2018-Jun-12 05:30N 52°02' E 003°07'510.2
2018-Jun-12 05:00N 52°03' E 003°15'510.0
2018-Jun-12 04:28N 52°03' E 003°23'510.0
2018-Jun-12 04:00N 52°04' E 003°31'5 9.6
2018-Jun-12 03:30N 52°05' E 003°39'4 9.0
2018-Jun-12 03:00N 52°04' E 003°46'4 8.9
2018-Jun-12 02:30N 52°03' E 003°53'4 7.4
2018-Jun-12 02:00N 52°01' E 003°58'5 9.5
2018-Jun-12 01:30N 51°59' E 004°05'4 8.5
2018-Jun-12 01:00N 51°57' E 004°11'4 7.6
2018-Jun-12 00:30N 51°55' E 004°16'3 6.9
2018-Jun-12 00:00N 51°52' E 004°20'3 6.9
2018-Jun-11 23:30N 51°51' E 004°25'4 8.8
2018-Jun-11 23:00N 51°50' E 004°32'4 8.5
2018-Jun-11 22:30N 51°48' E 004°38'0 0.6
2018-Jun-11 22:00N 51°48' E 004°38'0 0.0
2018-Jun-11 21:30N 51°48' E 004°38'0 0.0
2018-Jun-11 21:00N 51°48' E 004°38'0 0.0
2018-Jun-11 20:29N 51°48' E 004°38'0 0.0
2018-Jun-11 20:00N 51°48' E 004°38'0 0.0
2018-Jun-11 19:30N 51°48' E 004°38'0 0.0
2018-Jun-11 19:00N 51°48' E 004°38'0 0.0
2018-Jun-11 18:30N 51°48' E 004°38'0 0.0
2018-Jun-11 17:59N 51°48' E 004°38'0 0.0
2018-Jun-11 17:26N 51°48' E 004°38'0 0.0
2018-Jun-11 16:56N 51°48' E 004°38'0 0.0
2018-Jun-11 16:26N 51°48' E 004°38'0 0.0
2018-Jun-11 15:59N 51°48' E 004°38'0 0.0
2018-Jun-11 15:22N 51°48' E 004°38'0 0.0
2018-Jun-11 14:49N 51°48' E 004°38'0 0.0
2018-Jun-11 14:22N 51°48' E 004°38'0 0.0
2018-Jun-11 13:55N 51°48' E 004°38'0 0.0
2018-Jun-11 13:30N 51°48' E 004°38'0 0.0
2018-Jun-11 13:00N 51°48' E 004°38'0 0.0
2018-Jun-11 12:30N 51°48' E 004°38'0 0.0
2018-Jun-11 12:00N 51°48' E 004°38'0 0.0
2018-Jun-11 11:30N 51°48' E 004°38'0 0.0
2018-Jun-11 10:59N 51°48' E 004°38'0 0.0
2018-Jun-11 10:30N 51°48' E 004°38'0 0.0
2018-Jun-11 09:57N 51°48' E 004°38'0 0.0
2018-Jun-11 09:18N 51°48' E 004°38'0 0.0
2018-Jun-11 08:57N 51°48' E 004°38'0 0.0
2018-Jun-11 08:26N 51°48' E 004°38'0 0.0
2018-Jun-11 07:59N 51°48' E 004°38'0 0.0
2018-Jun-11 07:22N 51°48' E 004°38'0 0.0
2018-Jun-11 06:58N 51°48' E 004°38'0 0.0
2018-Jun-11 06:28N 51°48' E 004°38'0 0.0
2018-Jun-11 05:49N 51°48' E 004°38'0 0.0
2018-Jun-11 05:27N 51°48' E 004°38'0 0.0
2018-Jun-11 05:00N 51°48' E 004°38'0 0.0
2018-Jun-11 04:30N 51°48' E 004°38'0 0.0
2018-Jun-11 04:00N 51°48' E 004°38'0 0.0
2018-Jun-11 03:30N 51°48' E 004°38'0 0.0
2018-Jun-11 02:59N 51°48' E 004°38'0 0.0
2018-Jun-11 02:30N 51°48' E 004°38'0 0.0
2018-Jun-11 01:59N 51°48' E 004°38'0 0.0
2018-Jun-11 01:29N 51°48' E 004°38'  
Track history (hours):
 
Tides and Currents Weather Stations Pressure Air Temp Water Temp Dewpoint Dewpoint Depression Visibility Wind Speed Wind Dir Waves Ship Positions

Bente

Last reported at 2018-Jun-21 01:12 UTC. Time now 2018-Jun-21 08:46 UTC.
Position N 44°50' W 007°09'.

Length 90 m; draft 5.9 m.

Type: Ship. MMSI: 245870000.

Date/timePositionNaut miles runAvg speedWind from/ knotsBaromVisibWave heightAir tempDewpointWater temp
2018-Jun-21 01:12N 44°50' W 007°09'5 9.9
2018-Jun-21 00:44N 44°53' W 007°04'125 9.3
2018-Jun-20 11:17N 46°04' W 004°37'5 9.6
2018-Jun-20 10:47N 46°06' W 004°31'5 9.4
2018-Jun-20 10:12N 46°09' W 004°24'3 9.5
2018-Jun-20 09:53N 46°11' W 004°21'6 9.7
2018-Jun-20 09:18N 46°14' W 004°14'3 9.9
2018-Jun-20 09:00N 46°16' W 004°10'510.0
2018-Jun-20 08:30N 46°19' W 004°04'6 9.4
2018-Jun-20 07:54N 46°22' W 003°58'4 9.3
2018-Jun-20 07:30N 46°24' W 003°53'5 9.5
2018-Jun-20 07:00N 46°27' W 003°48'5 9.5
2018-Jun-20 06:30N 46°30' W 003°42'5 9.2
2018-Jun-20 06:00N 46°32' W 003°36'5 9.3
2018-Jun-20 05:30N 46°35' W 003°31'5 9.3
2018-Jun-20 05:00N 46°37' W 003°25'4 8.9
2018-Jun-20 04:30N 46°40' W 003°20'5 9.4
2018-Jun-20 03:58N 46°43' W 003°14'4 9.7
2018-Jun-20 03:30N 46°45' W 003°08'5 9.6
2018-Jun-20 02:59N 46°48' W 003°02'5 9.6
2018-Jun-20 02:30N 46°51' W 002°57'5 9.9
2018-Jun-20 02:00N 46°54' W 002°51'5 9.7
2018-Jun-20 01:30N 46°57' W 002°45'5 9.9
2018-Jun-20 01:01N 47°00' W 002°40'510.4
2018-Jun-20 00:30N 47°02' W 002°33'510.8
2018-Jun-20 00:00N 47°05' W 002°27'5 9.8
2018-Jun-19 23:30N 47°08' W 002°21'510.2
2018-Jun-19 23:00N 47°12' W 002°17'510.0
2018-Jun-19 22:30N 47°16' W 002°12'5 9.5
2018-Jun-19 22:00N 47°18' W 002°06'5 9.9
2018-Jun-19 21:30N 47°17' W 001°59'510.2
2018-Jun-19 21:00N 47°16' W 001°51'5 9.1
2018-Jun-19 20:30N 47°13' W 001°47'4 8.6
2018-Jun-19 20:00N 47°12' W 001°40'3 5.1
2018-Jun-19 19:30N 47°12' W 001°37'0 0.0
2018-Jun-19 19:00N 47°12' W 001°37'0 0.0
2018-Jun-19 18:30N 47°12' W 001°37'0 0.0
2018-Jun-19 18:00N 47°12' W 001°37'0 0.0
2018-Jun-19 17:30N 47°12' W 001°37'0 0.0
2018-Jun-19 17:00N 47°12' W 001°37'0 0.0
2018-Jun-19 16:30N 47°12' W 001°37'0 0.0
2018-Jun-19 16:00N 47°12' W 001°37'0 0.0
2018-Jun-19 15:30N 47°12' W 001°37'0 0.0
2018-Jun-19 14:59N 47°12' W 001°37'0 0.0
2018-Jun-19 14:30N 47°12' W 001°37'0 0.0
2018-Jun-19 14:00N 47°12' W 001°37'0 0.0
2018-Jun-19 13:30N 47°12' W 001°37'0 0.0
2018-Jun-19 13:00N 47°12' W 001°37'0 0.0
2018-Jun-19 12:30N 47°12' W 001°37'0 0.0
2018-Jun-19 11:58N 47°12' W 001°37'0 0.0
2018-Jun-19 11:16N 47°12' W 001°37'0 0.0
2018-Jun-19 10:58N 47°12' W 001°37'0 0.0
2018-Jun-19 10:28N 47°12' W 001°37'0 0.0
2018-Jun-19 10:00N 47°12' W 001°37'0 0.0
2018-Jun-19 09:30N 47°12' W 001°37'0 0.0
2018-Jun-19 09:00N 47°12' W 001°37'0 0.0
2018-Jun-19 08:30N 47°12' W 001°37'0 0.0
2018-Jun-19 08:00N 47°12' W 001°37'0 0.0
2018-Jun-19 07:29N 47°12' W 001°37'0 0.0
2018-Jun-19 06:59N 47°12' W 001°37'0 0.0
2018-Jun-19 06:26N 47°12' W 001°37'0 0.0
2018-Jun-19 05:59N 47°12' W 001°37'0 0.0
2018-Jun-19 05:28N 47°12' W 001°37'0 0.0
2018-Jun-19 04:55N 47°12' W 001°37'0 0.0
2018-Jun-19 04:28N 47°12' W 001°37'0 0.0
2018-Jun-19 03:58N 47°12' W 001°37'0 0.0
2018-Jun-19 03:28N 47°12' W 001°37'0 0.0
2018-Jun-19 03:00N 47°12' W 001°37'0 0.0
2018-Jun-19 02:30N 47°12' W 001°37'0 0.0
2018-Jun-19 01:57N 47°12' W 001°37'0 0.0
2018-Jun-19 01:30N 47°12' W 001°37'0 0.0
2018-Jun-19 01:00N 47°12' W 001°37'0 0.0
2018-Jun-19 00:29N 47°12' W 001°37'0 0.0
2018-Jun-18 23:59N 47°12' W 001°37'0 0.0
2018-Jun-18 23:29N 47°12' W 001°37'0 0.0
2018-Jun-18 22:59N 47°12' W 001°37'0 0.0
2018-Jun-18 22:25N 47°12' W 001°37'0 0.0
2018-Jun-18 21:58N 47°12' W 001°37'0 0.0
2018-Jun-18 21:28N 47°12' W 001°37'0 0.0
2018-Jun-18 20:58N 47°12' W 001°37'0 0.0
2018-Jun-18 20:28N 47°12' W 001°37'0 0.0
2018-Jun-18 20:00N 47°12' W 001°37'0 0.0
2018-Jun-18 19:30N 47°12' W 001°37'0 0.0
2018-Jun-18 19:00N 47°12' W 001°37'0 0.0
2018-Jun-18 18:27N 47°12' W 001°37'0 0.0
2018-Jun-18 18:00N 47°12' W 001°37'1 2.5
2018-Jun-18 17:31N 47°12' W 001°38'611.3
2018-Jun-18 17:00N 47°13' W 001°47'611.9
2018-Jun-18 16:31N 47°16' W 001°53'612.9
2018-Jun-18 16:01N 47°18' W 002°02'612.0
2018-Jun-18 15:30N 47°16' W 002°11'611.9
2018-Jun-18 15:00N 47°12' W 002°17'510.8
2018-Jun-18 14:31N 47°08' W 002°21'2 4.6
2018-Jun-18 14:00N 47°08' W 002°25'2 4.1
2018-Jun-18 13:30N 47°08' W 002°28'0 0.0
2018-Jun-18 12:51N 47°08' W 002°28'0 0.0
2018-Jun-18 12:26N 47°08' W 002°28'0 0.0
2018-Jun-18 11:56N 47°08' W 002°28'0 0.0
2018-Jun-18 11:29N 47°08' W 002°28'0 0.0
2018-Jun-18 10:59N 47°08' W 002°28'0 0.1
2018-Jun-18 10:29N 47°07' W 002°28'0 0.1
2018-Jun-18 09:58N 47°07' W 002°28'0 0.0
2018-Jun-18 09:28N 47°07' W 002°28'0 0.1
2018-Jun-18 08:58N 47°07' W 002°28'0 0.0
2018-Jun-18 08:28N 47°07' W 002°28'0 0.0
2018-Jun-18 07:57N 47°07' W 002°27'0 0.0
2018-Jun-18 07:30N 47°08' W 002°27'0 0.1
2018-Jun-18 07:00N 47°08' W 002°27'0 0.0
2018-Jun-18 06:30N 47°08' W 002°27'0 0.0
2018-Jun-18 05:57N 47°08' W 002°27'0 0.0
2018-Jun-18 05:29N 47°08' W 002°27'0 0.0
2018-Jun-18 04:59N 47°08' W 002°27'0 0.0
2018-Jun-18 04:29N 47°08' W 002°27'0 0.0
2018-Jun-18 03:56N 47°08' W 002°27'0 0.0
2018-Jun-18 03:29N 47°08' W 002°27'0 0.0
2018-Jun-18 02:58N 47°08' W 002°27'0 0.0
2018-Jun-18 02:28N 47°08' W 002°27'0 0.0
2018-Jun-18 01:58N 47°08' W 002°27'0 0.3
2018-Jun-18 01:25N 47°08' W 002°28'0 0.3
2018-Jun-18 01:01N 47°08' W 002°28'0 0.0
2018-Jun-18 00:30N 47°08' W 002°28'0 0.1
2018-Jun-18 00:00N 47°08' W 002°28'0 0.1
2018-Jun-17 23:30N 47°08' W 002°28'0 0.0
2018-Jun-17 23:00N 47°08' W 002°28'0 0.0
2018-Jun-17 22:29N 47°08' W 002°28'0 0.1
2018-Jun-17 22:00N 47°08' W 002°28'1 1.7
2018-Jun-17 21:31N 47°08' W 002°29'510.5
2018-Jun-17 21:00N 47°10' W 002°36'510.9
2018-Jun-17 20:30N 47°11' W 002°44'611.2
2018-Jun-17 20:00N 47°12' W 002°52'611.2
2018-Jun-17 19:30N 47°13' W 002°60'611.2
2018-Jun-17 19:00N 47°15' W 003°08'611.2
2018-Jun-17 18:31N 47°16' W 003°16'611.6
2018-Jun-17 18:00N 47°19' W 003°23'611.5
2018-Jun-17 17:30N 47°22' W 003°30'611.3
2018-Jun-17 17:01N 47°25' W 003°37'611.4
2018-Jun-17 16:30N 47°28' W 003°45'611.4
2018-Jun-17 16:00N 47°31' W 003°52'5 9.5
2018-Jun-17 15:30N 47°34' W 003°58'5 9.5
2018-Jun-17 14:59N 47°36' W 004°04'23 9.4
2018-Jun-17 12:34N 47°48' W 004°33'1 9.2
2018-Jun-17 12:30N 47°48' W 004°33'6 9.3
2018-Jun-17 11:49N 47°52' W 004°42'3 8.9
2018-Jun-17 11:31N 47°53' W 004°45'5 9.0
2018-Jun-17 11:00N 47°55' W 004°51'510.1
2018-Jun-17 10:30N 47°58' W 004°57'510.3
2018-Jun-17 10:00N 48°01' W 005°04'610.4
2018-Jun-17 09:28N 48°04' W 005°11'2610.8
2018-Jun-17 07:06N 48°24' W 005°35'410.1
2018-Jun-17 06:44N 48°26' W 005°39'210.0
2018-Jun-17 06:31N 48°28' W 005°41'31 9.0
2018-Jun-17 03:06N 48°57' W 005°57'310.2
2018-Jun-17 02:50N 48°60' W 005°57'510.4
2018-Jun-17 02:22N 49°04' W 005°57'610.5
2018-Jun-17 01:50N 49°10' W 005°57'410.8
2018-Jun-17 01:29N 49°14' W 005°57'2411.2
2018-Jun-16 23:20N 49°38' W 005°59'158 9.5
2018-Jun-16 06:36N 52°16' W 005°50'310.0
2018-Jun-16 06:19N 52°19' W 005°49'2011.4
2018-Jun-16 04:32N 52°39' W 005°45'312.6
2018-Jun-16 04:19N 52°42' W 005°44'512.8
2018-Jun-16 03:57N 52°46' W 005°43'612.9
2018-Jun-16 03:31N 52°52' W 005°42'813.5
2018-Jun-16 02:54N 53°00' W 005°40'712.9
2018-Jun-16 02:21N 53°07' W 005°42'512.3
2018-Jun-16 01:56N 53°12' W 005°45'511.5
2018-Jun-16 01:29N 53°17' W 005°49'1410.8
2018-Jun-16 00:09N 53°30' W 005°58'310.5
2018-Jun-15 23:52N 53°33' W 005°60'4 9.8
2018-Jun-15 23:29N 53°36' W 006°03'5 9.8
2018-Jun-15 23:01N 53°40' W 006°08'5 9.4
2018-Jun-15 22:30N 53°43' W 006°13'3 5.8
2018-Jun-15 22:00N 53°43' W 006°18'0 0.2
2018-Jun-15 21:28N 53°43' W 006°18'0 0.0
2018-Jun-15 20:58N 53°43' W 006°18'0 0.0
2018-Jun-15 20:28N 53°43' W 006°18'0 0.0
2018-Jun-15 19:45N 53°43' W 006°18'0 0.0
2018-Jun-15 18:45N 53°43' W 006°18'0 0.0
2018-Jun-15 17:41N 53°43' W 006°18'0 0.0
2018-Jun-15 17:29N 53°43' W 006°18'0 0.0
2018-Jun-15 16:56N 53°43' W 006°18'0 0.0
2018-Jun-15 16:23N 53°43' W 006°18'0 0.0
2018-Jun-15 15:59N 53°43' W 006°18'0 0.0
2018-Jun-15 15:28N 53°43' W 006°18'0 0.0
2018-Jun-15 14:58N 53°43' W 006°18'0 0.0
2018-Jun-15 14:28N 53°43' W 006°18'0 0.0
2018-Jun-15 13:55N 53°43' W 006°18'0 0.0
2018-Jun-15 13:28N 53°43' W 006°18'0 0.0
2018-Jun-15 13:00N 53°43' W 006°18'0 0.0
2018-Jun-15 12:30N 53°43' W 006°18'0 0.0
2018-Jun-15 11:57N 53°43' W 006°18'0 0.0
2018-Jun-15 11:27N 53°43' W 006°18'0 0.0
2018-Jun-15 10:59N 53°43' W 006°18'0 0.0
2018-Jun-15 10:29N 53°43' W 006°18'0 0.0
2018-Jun-15 09:59N 53°43' W 006°18'0 0.0
2018-Jun-15 09:23N 53°43' W 006°18'0 0.0
2018-Jun-15 03:50N 53°43' W 006°18'0 0.0
2018-Jun-15 03:29N 53°43' W 006°18'0 0.0
2018-Jun-15 02:59N 53°43' W 006°18'0 0.0
2018-Jun-15 02:23N 53°43' W 006°18'0 0.0
2018-Jun-15 01:59N 53°43' W 006°18'0 0.0
2018-Jun-15 01:28N 53°43' W 006°18'0 0.0
2018-Jun-15 00:58N 53°43' W 006°18'0 0.0
2018-Jun-15 00:25N 53°43' W 006°18'0 0.0
2018-Jun-14 23:55N 53°43' W 006°18'0 0.0
2018-Jun-14 23:22N 53°43' W 006°18'0 1.3
2018-Jun-14 23:00N 53°43' W 006°17'3 5.1
2018-Jun-14 22:30N 53°43' W 006°13'1 2.9
2018-Jun-14 22:00N 53°43' W 006°11'1 2.5
2018-Jun-14 21:30N 53°42' W 006°10'4 8.8
2018-Jun-14 21:00N 53°38' W 006°05'4010.7
2018-Jun-14 17:14N 53°01' W 005°40'4 9.5
2018-Jun-14 16:47N 52°57' W 005°40'3 9.3
2018-Jun-14 16:30N 52°54' W 005°40'4 8.8
2018-Jun-14 16:00N 52°50' W 005°41'79 8.6
2018-Jun-14 06:51N 51°31' W 005°49'53 9.3
2018-Jun-14 01:05N 50°38' W 005°51'3 9.7
2018-Jun-14 00:50N 50°35' W 005°51'6 9.6
2018-Jun-14 00:14N 50°30' W 005°51'2 9.4
2018-Jun-13 23:59N 50°27' W 005°51'4 9.4
2018-Jun-13 23:30N 50°23' W 005°52'5 9.2
2018-Jun-13 22:57N 50°18' W 005°52'54 6.6
2018-Jun-13 14:46N 49°60' W 004°32'2 9.0
2018-Jun-13 14:30N 50°00' W 004°29'7 9.5
2018-Jun-13 13:46N 50°01' W 004°18'310.0
2018-Jun-13 13:30N 50°02' W 004°14'510.3
2018-Jun-13 13:00N 50°03' W 004°06'710.8
2018-Jun-13 12:21N 50°04' W 003°55'511.2
2018-Jun-13 11:54N 50°05' W 003°48'511.3
2018-Jun-13 11:30N 50°06' W 003°41'611.1
2018-Jun-13 11:00N 50°07' W 003°32'510.6
2018-Jun-13 10:30N 50°08' W 003°24'5 9.8
2018-Jun-13 10:00N 50°09' W 003°17'5 9.4
2018-Jun-13 09:30N 50°10' W 003°09'5 9.1
2018-Jun-13 09:00N 50°11' W 003°02'4 8.9
2018-Jun-13 08:30N 50°11' W 002°56'4 8.5
2018-Jun-13 08:00N 50°12' W 002°49'4 8.0
2018-Jun-13 07:30N 50°13' W 002°43'4 7.5
2018-Jun-13 07:00N 50°14' W 002°37'4 7.4
2018-Jun-13 06:27N 50°14' W 002°31'3 7.5
2018-Jun-13 06:00N 50°15' W 002°26'10 8.0
2018-Jun-13 04:43N 50°17' W 002°10'2 8.8
2018-Jun-13 04:28N 50°17' W 002°06'6 9.5
2018-Jun-13 03:51N 50°19' W 001°57'410.3
2018-Jun-13 03:30N 50°19' W 001°52'511.1
2018-Jun-13 03:00N 50°20' W 001°44'611.8
2018-Jun-13 02:30N 50°21' W 001°35'612.4
2018-Jun-13 02:00N 50°23' W 001°25'1812.8
2018-Jun-13 00:38N 50°26' W 000°58'412.9
2018-Jun-13 00:19N 50°26' W 000°51'412.5
2018-Jun-13 00:00N 50°27' W 000°45'611.4
2018-Jun-12 23:30N 50°28' W 000°37'510.7
2018-Jun-12 23:00N 50°29' W 000°28'510.3
2018-Jun-12 22:30N 50°30' W 000°20'13 9.1
2018-Jun-12 21:08N 50°33' W 000°01'3 8.0
2018-Jun-12 20:46N 50°33' E 000°03'3 7.7
2018-Jun-12 20:26N 50°34' E 000°07'3 7.6
2018-Jun-12 20:00N 50°35' E 000°12'4 7.4
2018-Jun-12 19:30N 50°36' E 000°18'4 7.5
2018-Jun-12 19:00N 50°37' E 000°24'4 8.2
2018-Jun-12 18:30N 50°38' E 000°30'4 9.0
2018-Jun-12 18:00N 50°40' E 000°36'510.1
2018-Jun-12 17:30N 50°43' E 000°43'510.9
2018-Jun-12 17:00N 50°46' E 000°50'611.5
2018-Jun-12 16:30N 50°49' E 000°57'611.7
2018-Jun-12 16:00N 50°53' E 001°05'611.6
2018-Jun-12 15:30N 50°57' E 001°12'611.4
2018-Jun-12 15:00N 51°00' E 001°19'510.8
2018-Jun-12 14:30N 51°04' E 001°25'510.0
2018-Jun-12 14:00N 51°07' E 001°31'4 8.8
2018-Jun-12 13:30N 51°10' E 001°37'4 8.2
2018-Jun-12 13:00N 51°12' E 001°42'4 7.7
2018-Jun-12 12:30N 51°15' E 001°46'4 7.8
2018-Jun-12 12:00N 51°18' E 001°50'4 7.8
2018-Jun-12 11:30N 51°21' E 001°53'4 8.1
2018-Jun-12 11:00N 51°25' E 001°57'4 8.5
2018-Jun-12 10:30N 51°28' E 002°01'5 9.1
2018-Jun-12 10:00N 51°31' E 002°06'5 9.3
2018-Jun-12 09:30N 51°35' E 002°12'510.0
2018-Jun-12 09:00N 51°38' E 002°17'710.9
2018-Jun-12 08:23N 51°43' E 002°25'611.2
2018-Jun-12 07:52N 51°48' E 002°31'411.3
2018-Jun-12 07:28N 51°51' E 002°36'511.2
2018-Jun-12 07:00N 51°54' E 002°43'811.2
2018-Jun-12 06:15N 51°58' E 002°55'311.0
2018-Jun-12 05:56N 51°60' E 002°60'510.8
2018-Jun-12 05:30N 52°02' E 003°07'510.2
2018-Jun-12 05:00N 52°03' E 003°15'510.0
2018-Jun-12 04:28N 52°03' E 003°23'510.0
2018-Jun-12 04:00N 52°04' E 003°31'5 9.6
2018-Jun-12 03:30N 52°05' E 003°39'4 9.0
2018-Jun-12 03:00N 52°04' E 003°46'4 8.9
2018-Jun-12 02:30N 52°03' E 003°53'4 7.4
2018-Jun-12 02:00N 52°01' E 003°58'5 9.5
2018-Jun-12 01:30N 51°59' E 004°05'4 8.5
2018-Jun-12 01:00N 51°57' E 004°11'4 7.6
2018-Jun-12 00:30N 51°55' E 004°16'3 6.9
2018-Jun-12 00:00N 51°52' E 004°20'3 6.9
2018-Jun-11 23:30N 51°51' E 004°25'4 8.8
2018-Jun-11 23:00N 51°50' E 004°32'4 8.5
2018-Jun-11 22:30N 51°48' E 004°38'0 0.6
2018-Jun-11 22:00N 51°48' E 004°38'0 0.0
2018-Jun-11 21:30N 51°48' E 004°38'0 0.0
2018-Jun-11 21:00N 51°48' E 004°38'0 0.0
2018-Jun-11 20:29N 51°48' E 004°38'0 0.0
2018-Jun-11 20:00N 51°48' E 004°38'0 0.0
2018-Jun-11 19:30N 51°48' E 004°38'0 0.0
2018-Jun-11 19:00N 51°48' E 004°38'0 0.0
2018-Jun-11 18:30N 51°48' E 004°38'0 0.0
2018-Jun-11 17:59N 51°48' E 004°38'0 0.0
2018-Jun-11 17:26N 51°48' E 004°38'0 0.0
2018-Jun-11 16:56N 51°48' E 004°38'0 0.0
2018-Jun-11 16:26N 51°48' E 004°38'0 0.0
2018-Jun-11 15:59N 51°48' E 004°38'0 0.0
2018-Jun-11 15:22N 51°48' E 004°38'0 0.0
2018-Jun-11 14:49N 51°48' E 004°38'0 0.0
2018-Jun-11 14:22N 51°48' E 004°38'0 0.0
2018-Jun-11 13:55N 51°48' E 004°38'0 0.0
2018-Jun-11 13:30N 51°48' E 004°38'0 0.0
2018-Jun-11 13:00N 51°48' E 004°38'0 0.0
2018-Jun-11 12:30N 51°48' E 004°38'0 0.0
2018-Jun-11 12:00N 51°48' E 004°38'0 0.0
2018-Jun-11 11:30N 51°48' E 004°38'0 0.0
2018-Jun-11 10:59N 51°48' E 004°38'0 0.0
2018-Jun-11 10:30N 51°48' E 004°38'0 0.0
2018-Jun-11 09:57N 51°48' E 004°38'0 0.0
2018-Jun-11 09:18N 51°48' E 004°38'0 0.0
2018-Jun-11 08:57N 51°48' E 004°38'0 0.0
2018-Jun-11 08:26N 51°48' E 004°38'0 0.0
2018-Jun-11 07:59N 51°48' E 004°38'0 0.0
2018-Jun-11 07:22N 51°48' E 004°38'0 0.0
2018-Jun-11 06:58N 51°48' E 004°38'0 0.0
2018-Jun-11 06:28N 51°48' E 004°38'0 0.0
2018-Jun-11 05:49N 51°48' E 004°38'0 0.0
2018-Jun-11 05:27N 51°48' E 004°38'0 0.0
2018-Jun-11 05:00N 51°48' E 004°38'0 0.0
2018-Jun-11 04:30N 51°48' E 004°38'0 0.0
2018-Jun-11 04:00N 51°48' E 004°38'0 0.0
2018-Jun-11 03:30N 51°48' E 004°38'0 0.0
2018-Jun-11 02:59N 51°48' E 004°38'0 0.0
2018-Jun-11 02:30N 51°48' E 004°38'0 0.0
2018-Jun-11 01:59N 51°48' E 004°38'0 0.0
2018-Jun-11 01:29N 51°48' E 004°38'  

Dump ship's entire track history